createdAt,value
2019-06-08T00:00:20.841Z,75.12
2019-06-08T00:02:50.241Z,75.44
2019-06-08T00:05:20.945Z,74.78
2019-06-08T00:07:50.408Z,74.62
2019-06-08T00:10:23.731Z,74.28
2019-06-08T00:12:51.574Z,73.51
2019-06-08T00:15:22.329Z,72.42
2019-06-08T00:17:51.740Z,72.58
2019-06-08T00:20:21.876Z,73.21
2019-06-08T00:22:51.232Z,73.73
2019-06-08T00:25:20.894Z,74.01
2019-06-08T00:27:51.366Z,73.97
2019-06-08T00:30:20.679Z,73.79
2019-06-08T00:32:49.865Z,73.56
2019-06-08T00:35:19.092Z,73.81
2019-06-08T00:37:48.295Z,74.71
2019-06-08T00:40:18.862Z,75.29
2019-06-08T00:42:49.072Z,76.03
2019-06-08T00:45:19.877Z,76.01
2019-06-08T00:47:49.257Z,76.69
2019-06-08T00:50:20.819Z,77.10
2019-06-08T00:52:50.267Z,76.51
2019-06-08T00:55:19.529Z,76.04
2019-06-08T00:57:48.739Z,75.18
2019-06-08T01:00:18.370Z,74.34
2019-06-08T01:02:47.569Z,73.45
2019-06-08T01:05:17.787Z,73.29
2019-06-08T01:07:47.113Z,73.10
2019-06-08T01:10:17.126Z,71.38
2019-06-08T01:12:46.300Z,71.54
2019-06-08T01:15:16.821Z,70.41
2019-06-08T01:17:59.140Z,70.61
2019-06-08T01:20:17.301Z,69.81
2019-06-08T01:22:46.508Z,69.52
2019-06-08T01:25:15.767Z,68.92
2019-06-08T01:27:44.987Z,68.47
2019-06-08T01:30:14.711Z,68.49
2019-06-08T01:32:43.887Z,68.28
2019-06-08T01:35:13.169Z,68.17
2019-06-08T01:37:42.347Z,68.07
2019-06-08T01:40:11.830Z,67.96
2019-06-08T01:42:41.021Z,67.66
2019-06-08T01:45:12.389Z,67.67
2019-06-08T01:47:41.567Z,67.98
2019-06-08T01:50:10.899Z,67.96
2019-06-08T01:52:40.101Z,68.23
2019-06-08T01:55:09.423Z,68.08
2019-06-08T01:57:38.618Z,67.94
2019-06-08T02:00:29.162Z,67.84
2019-06-08T02:02:39.623Z,68.07
2019-06-08T02:05:08.960Z,68.37
2019-06-08T02:07:38.229Z,68.45
2019-06-08T02:10:08.631Z,68.17
2019-06-08T02:12:37.885Z,68.28
2019-06-08T02:15:08.370Z,68.37
2019-06-08T02:17:37.555Z,68.44
2019-06-08T02:20:07.692Z,68.30
2019-06-08T02:22:37.002Z,68.34
2019-06-08T02:25:07.647Z,68.14
2019-06-08T02:27:37.426Z,68.07
2019-06-08T02:30:15.812Z,68.44
2019-06-08T02:32:44.987Z,68.66
2019-06-08T02:35:15.526Z,69.52
2019-06-08T02:37:44.764Z,70.65
2019-06-08T02:40:14.591Z,73.27
2019-06-08T02:42:43.806Z,75.11
2019-06-08T02:45:14.229Z,76.51
2019-06-08T02:47:43.404Z,77.69
2019-06-08T02:50:14.223Z,78.13
2019-06-08T02:52:44.779Z,77.92
2019-06-08T02:55:13.968Z,78.01
2019-06-08T02:57:44.195Z,77.52
2019-06-08T03:00:14.209Z,77.41
2019-06-08T03:02:49.091Z,77.76
2019-06-08T03:05:20.012Z,78.03
2019-06-08T03:07:51.708Z,78.02
2019-06-08T03:10:21.056Z,78.52
2019-06-08T03:12:51.942Z,80.67
2019-06-08T03:15:33.878Z,81.22
2019-06-08T03:18:01.356Z,83.18
2019-06-08T03:20:31.648Z,83.50
2019-06-08T03:23:00.909Z,83.13
2019-06-08T03:25:30.094Z,81.81
2019-06-08T03:27:59.307Z,79.77
2019-06-08T03:30:28.457Z,77.77
2019-06-08T03:32:57.666Z,76.58
2019-06-08T03:35:26.876Z,76.17
2019-06-08T03:37:56.130Z,75.05
2019-06-08T03:40:25.313Z,74.19
2019-06-08T03:42:58.027Z,73.93
2019-06-08T03:45:27.441Z,73.68
2019-06-08T03:47:56.636Z,73.76
2019-06-08T03:50:25.813Z,73.39
2019-06-08T03:53:02.000Z,73.21
2019-06-08T03:55:31.183Z,72.91
2019-06-08T03:58:00.375Z,72.47
2019-06-08T04:00:29.584Z,73.01
2019-06-08T04:02:58.688Z,73.19
2019-06-08T04:05:27.872Z,73.64
2019-06-08T04:07:57.062Z,73.00
2019-06-08T04:10:26.247Z,72.76
2019-06-08T04:12:55.426Z,72.06
2019-06-08T04:15:25.295Z,71.94
2019-06-08T04:17:54.513Z,71.97
2019-06-08T04:20:23.794Z,72.57
2019-06-08T04:22:53.060Z,72.88
2019-06-08T04:25:22.248Z,73.64
2019-06-08T04:27:51.459Z,74.20
2019-06-08T04:30:20.857Z,73.93
2019-06-08T04:32:50.045Z,74.20
2019-06-08T04:35:19.216Z,73.96
2019-06-08T04:37:48.390Z,73.79
2019-06-08T04:40:17.721Z,73.49
2019-06-08T04:42:49.359Z,73.04
2019-06-08T04:45:17.792Z,73.35
2019-06-08T04:47:48.257Z,74.08
2019-06-08T04:50:23.456Z,74.14
2019-06-08T04:52:49.980Z,74.69
2019-06-08T04:55:19.458Z,74.56
2019-06-08T04:57:50.702Z,74.38
2019-06-08T05:00:19.845Z,74.64
2019-06-08T05:02:51.090Z,74.92
2019-06-08T05:05:19.947Z,74.62
2019-06-08T05:07:50.297Z,74.67
2019-06-08T05:10:19.808Z,75.16
2019-06-08T05:12:50.171Z,74.98
2019-06-08T05:15:19.840Z,74.73
2019-06-08T05:17:49.720Z,74.39
2019-06-08T05:20:19.075Z,74.46
2019-06-08T05:22:49.676Z,74.20
2019-06-08T05:25:19.022Z,74.29
2019-06-08T05:27:49.469Z,74.70
2019-06-08T05:30:19.376Z,74.40
2019-06-08T05:32:49.661Z,75.08
2019-06-08T05:35:19.349Z,75.31
2019-06-08T05:37:49.716Z,75.67
2019-06-08T05:40:19.443Z,75.98
2019-06-08T05:42:49.838Z,75.98
2019-06-08T05:45:19.464Z,77.10
2019-06-08T05:47:50.085Z,78.07
2019-06-08T05:50:19.523Z,77.86
2019-06-08T05:52:50.172Z,78.02
2019-06-08T05:55:19.584Z,78.45
2019-06-08T05:57:48.769Z,78.65
2019-06-08T06:00:18.198Z,79.15
2019-06-08T06:02:47.431Z,78.88
2019-06-08T06:05:17.128Z,78.73
2019-06-08T06:07:46.772Z,78.78
2019-06-08T06:10:16.422Z,78.89
2019-06-08T06:12:46.853Z,78.67
2019-06-08T06:15:16.388Z,79.00
2019-06-08T06:17:51.536Z,78.75
2019-06-08T06:20:21.090Z,78.89
2019-06-08T06:22:52.581Z,78.47
2019-06-08T06:25:21.167Z,78.17
2019-06-08T06:27:51.814Z,78.19
2019-06-08T06:30:21.265Z,77.76
2019-06-08T06:32:50.452Z,77.66
2019-06-08T06:35:20.212Z,77.73
2019-06-08T06:37:50.243Z,77.48
2019-06-08T06:40:19.471Z,77.75
2019-06-08T06:42:49.955Z,78.21
2019-06-08T06:45:19.679Z,78.64
2019-06-08T06:47:50.363Z,79.02
2019-06-08T06:50:21.664Z,79.01
2019-06-08T06:52:52.847Z,79.50
2019-06-08T06:55:25.234Z,79.33
2019-06-08T06:57:53.553Z,79.17
2019-06-08T07:00:32.999Z,79.66
2019-06-08T07:03:02.378Z,79.66
2019-06-08T07:05:31.543Z,79.55
2019-06-08T07:08:00.723Z,79.20
2019-06-08T07:10:29.948Z,78.77
2019-06-08T07:12:59.196Z,78.20
2019-06-08T07:15:29.334Z,77.86
2019-06-08T07:17:58.894Z,78.51
2019-06-08T07:20:28.154Z,80.40
2019-06-08T07:22:57.336Z,81.54
2019-06-08T07:25:26.561Z,82.01
2019-06-08T07:27:55.717Z,82.10
2019-06-08T07:30:25.426Z,81.92
2019-06-08T07:32:55.133Z,81.65
2019-06-08T07:35:24.407Z,81.56
2019-06-08T07:37:53.733Z,81.58
2019-06-08T07:40:23.020Z,79.59
2019-06-08T07:42:53.390Z,78.73
2019-06-08T07:45:23.161Z,78.12
2019-06-08T07:47:54.003Z,77.68
2019-06-08T07:50:23.252Z,77.71
2019-06-08T07:52:52.886Z,79.04
2019-06-08T07:55:22.071Z,79.92
2019-06-08T07:57:52.232Z,80.40
2019-06-08T08:00:22.070Z,80.21
2019-06-08T08:02:52.075Z,79.84
2019-06-08T08:05:21.317Z,78.28
2019-06-08T08:07:50.513Z,77.33
2019-06-08T08:10:21.805Z,76.13
2019-06-08T08:12:51.019Z,75.55
2019-06-08T08:15:20.289Z,74.48
2019-06-08T08:17:51.917Z,73.52
2019-06-08T08:20:20.503Z,72.57
2019-06-08T08:22:54.412Z,71.65
2019-06-08T08:25:20.592Z,71.85
2019-06-08T08:27:50.732Z,71.97
2019-06-08T08:30:22.115Z,72.20
2019-06-08T08:32:52.664Z,72.42
2019-06-08T08:35:22.181Z,72.44
2019-06-08T08:37:55.470Z,72.46
2019-06-08T08:40:22.300Z,72.37
2019-06-08T08:42:52.368Z,72.66
2019-06-08T08:45:22.446Z,72.48
2019-06-08T08:48:00.008Z,72.08
2019-06-08T08:50:22.724Z,71.38
2019-06-08T08:52:52.368Z,70.80
2019-06-08T08:55:21.651Z,71.05
2019-06-08T08:57:52.180Z,70.88
2019-06-08T09:00:22.041Z,70.98
2019-06-08T09:03:10.886Z,72.34
2019-06-08T09:05:22.369Z,74.86
2019-06-08T09:07:52.551Z,76.31
2019-06-08T09:10:22.770Z,77.58
2019-06-08T09:12:53.473Z,77.75
2019-06-08T09:15:23.688Z,77.48
2019-06-08T09:17:53.851Z,77.32
2019-06-08T09:20:23.226Z,76.40
2019-06-08T09:23:00.759Z,76.17
2019-06-08T09:25:23.345Z,77.65
2019-06-08T09:27:53.249Z,78.60
2019-06-08T09:30:23.695Z,78.61
2019-06-08T09:32:54.344Z,78.90
2019-06-08T09:35:23.591Z,80.01
2019-06-08T09:37:54.518Z,80.43
2019-06-08T09:40:26.628Z,80.67
2019-06-08T09:42:59.134Z,79.51
2019-06-08T09:45:28.800Z,78.91
2019-06-08T09:48:00.442Z,78.88
2019-06-08T09:50:28.397Z,79.21
2019-06-08T09:53:14.777Z,79.49
2019-06-08T09:55:28.881Z,79.72
2019-06-08T09:58:01.864Z,79.54
2019-06-08T10:00:29.807Z,79.73
2019-06-08T10:03:02.460Z,78.74
2019-06-08T10:05:30.215Z,76.78
2019-06-08T10:08:02.138Z,75.13
2019-06-08T10:10:30.207Z,73.46
2019-06-08T10:13:01.756Z,72.76
2019-06-08T10:15:30.317Z,70.96
2019-06-08T10:18:00.910Z,70.78
2019-06-08T10:20:30.886Z,69.83
2019-06-08T10:23:03.099Z,69.09
2019-06-08T10:25:31.098Z,68.90
2019-06-08T10:28:06.750Z,69.04
2019-06-08T10:30:31.235Z,68.09
2019-06-08T10:33:02.152Z,67.54
2019-06-08T10:35:31.319Z,67.21
2019-06-08T10:38:05.047Z,67.15
2019-06-08T10:40:31.388Z,67.66
2019-06-08T10:43:01.469Z,68.42
2019-06-08T10:45:32.421Z,69.83
2019-06-08T10:48:03.237Z,70.55
2019-06-08T10:50:32.482Z,71.19
2019-06-08T10:53:04.051Z,71.23
2019-06-08T10:55:32.570Z,71.44
2019-06-08T10:58:02.362Z,71.08
2019-06-08T11:00:39.634Z,71.64
2019-06-08T11:03:10.601Z,71.99
2019-06-08T11:05:39.790Z,71.93
2019-06-08T11:08:14.109Z,72.09
2019-06-08T11:10:39.966Z,72.77
2019-06-08T11:13:14.999Z,72.81
2019-06-08T11:15:39.969Z,73.31
2019-06-08T11:18:12.629Z,78.78
2019-06-08T11:20:40.023Z,80.61
2019-06-08T11:23:12.271Z,84.31
2019-06-08T11:25:40.103Z,87.24
2019-06-08T11:28:14.860Z,89.40
2019-06-08T11:30:40.158Z,89.48
2019-06-08T11:33:11.219Z,89.32
2019-06-08T11:35:40.227Z,89.47
2019-06-08T11:38:12.593Z,87.92
2019-06-08T11:40:40.310Z,87.10
2019-06-08T11:43:10.589Z,85.60
2019-06-08T11:45:39.858Z,85.49
2019-06-08T11:48:09.052Z,85.36
2019-06-08T11:50:42.109Z,85.12
2019-06-08T11:53:14.368Z,86.82
2019-06-08T11:55:43.983Z,88.81
2019-06-08T11:58:13.896Z,90.50
2019-06-08T12:00:55.107Z,91.03
2019-06-08T12:03:24.401Z,90.30
2019-06-08T12:05:53.658Z,88.55
2019-06-08T12:08:22.906Z,86.65
2019-06-08T12:10:52.078Z,86.79
2019-06-08T12:13:21.241Z,87.48
2019-06-08T12:15:50.774Z,86.53
2019-06-08T12:18:19.965Z,85.42
2019-06-08T12:20:49.141Z,86.46
2019-06-08T12:23:18.415Z,85.87
2019-06-08T12:25:47.591Z,85.73
2019-06-08T12:28:17.849Z,84.83
2019-06-08T12:30:47.847Z,82.91
2019-06-08T12:33:19.203Z,83.07
2019-06-08T12:35:48.066Z,84.31
2019-06-08T12:38:19.000Z,85.22
2019-06-08T12:40:48.639Z,83.72
2019-06-08T12:43:20.217Z,84.07
2019-06-08T12:45:50.521Z,81.88
2019-06-08T12:48:24.907Z,80.64
2019-06-08T12:50:50.621Z,80.75
2019-06-08T12:53:22.643Z,78.19
2019-06-08T12:55:52.508Z,76.43
2019-06-08T12:58:22.088Z,78.36
2019-06-08T13:00:51.518Z,77.17
2019-06-08T13:03:20.696Z,75.15
2019-06-08T13:05:49.869Z,72.20
2019-06-08T13:08:21.524Z,72.08
2019-06-08T13:10:49.982Z,71.33
2019-06-08T13:13:24.240Z,69.34
2019-06-08T13:15:50.052Z,69.57
2019-06-08T13:18:21.212Z,69.72
2019-06-08T13:20:51.798Z,67.38
2019-06-08T13:23:21.392Z,67.19
2019-06-08T13:25:50.687Z,66.03
2019-06-08T13:28:25.031Z,64.05
2019-06-08T13:30:50.750Z,64.15
2019-06-08T13:33:20.259Z,64.77
2019-06-08T13:35:49.615Z,62.18
2019-06-08T13:38:20.484Z,61.25
2019-06-08T13:40:49.718Z,59.53
2019-06-08T13:43:21.230Z,60.11
2019-06-08T13:45:51.517Z,61.09
2019-06-08T13:48:22.035Z,61.37
2019-06-08T13:50:52.285Z,61.27
2019-06-08T13:53:27.296Z,60.48
2019-06-08T13:55:56.472Z,60.94
2019-06-08T13:58:29.711Z,62.71
2019-06-08T14:00:56.765Z,62.21
2019-06-08T14:03:28.154Z,60.90
2019-06-08T14:05:57.324Z,60.61
2019-06-08T14:08:32.736Z,59.16
2019-06-08T14:11:00.913Z,57.10
2019-06-08T14:13:34.186Z,56.97
2019-06-08T14:16:00.314Z,57.39
2019-06-08T14:18:33.930Z,56.71
2019-06-08T14:21:00.489Z,57.22
2019-06-08T14:23:29.705Z,58.17
2019-06-08T14:26:00.255Z,58.57
2019-06-08T14:28:30.392Z,58.70
2019-06-08T14:30:59.690Z,59.44
2019-06-08T14:33:33.013Z,59.89
2019-06-08T14:35:59.739Z,59.02
2019-06-08T14:38:35.870Z,56.80
2019-06-08T14:40:59.815Z,56.31
2019-06-08T14:43:31.220Z,55.89
2019-06-08T14:45:59.976Z,56.32
2019-06-08T14:48:33.486Z,56.10
2019-06-08T14:51:00.030Z,55.93
2019-06-08T14:53:29.224Z,55.51
2019-06-08T14:56:05.633Z,55.47
2019-06-08T14:58:34.567Z,55.60
2019-06-08T15:01:00.284Z,55.98
2019-06-08T15:03:29.596Z,56.70
2019-06-08T15:05:58.772Z,55.62
2019-06-08T15:08:29.491Z,55.16
2019-06-08T15:10:58.884Z,56.03
2019-06-08T15:13:28.669Z,56.57
2019-06-08T15:16:00.671Z,53.24
2019-06-08T15:18:30.513Z,52.71
2019-06-08T15:21:01.141Z,52.02
2019-06-08T15:23:32.660Z,52.01
2019-06-08T15:26:01.242Z,51.57
2019-06-08T15:28:35.489Z,51.89
2019-06-08T15:31:01.332Z,52.06
2019-06-08T15:33:33.579Z,51.58
2019-06-08T15:36:01.414Z,51.44
2019-06-08T15:38:32.430Z,51.72
2019-06-08T15:41:01.414Z,52.05
2019-06-08T15:43:34.490Z,51.70
2019-06-08T15:46:01.608Z,51.13
2019-06-08T15:48:32.287Z,51.43
2019-06-08T15:51:01.968Z,50.65
2019-06-08T15:53:32.463Z,48.35
2019-06-08T15:56:02.043Z,48.38
2019-06-08T15:58:32.805Z,47.71
2019-06-08T16:01:02.128Z,49.22
2019-06-08T16:03:31.752Z,50.31
2019-06-08T16:06:00.985Z,50.35
2019-06-08T16:08:30.336Z,46.95
2019-06-08T16:10:59.547Z,46.72
2019-06-08T16:13:28.738Z,46.93
2019-06-08T16:15:57.896Z,47.09
2019-06-08T16:18:27.408Z,47.83
2019-06-08T16:20:56.659Z,47.48
2019-06-08T16:23:27.376Z,47.57
2019-06-08T16:25:57.031Z,46.68
2019-06-08T16:28:26.187Z,46.75
2019-06-08T16:30:55.374Z,46.43
2019-06-08T16:33:27.415Z,46.16
2019-06-08T16:35:56.589Z,47.20
2019-06-08T16:38:25.772Z,48.11
2019-06-08T16:40:54.961Z,47.52
2019-06-08T16:43:26.877Z,47.21
2019-06-08T16:45:55.033Z,47.75
2019-06-08T16:48:42.138Z,47.79
2019-06-08T16:51:29.440Z,48.55
2019-06-08T16:53:58.632Z,48.19
2019-06-08T16:56:27.813Z,49.15
2019-06-08T16:58:57.002Z,49.61
2019-06-08T17:01:44.459Z,47.72
2019-06-08T17:04:13.724Z,47.71
2019-06-08T17:06:42.919Z,47.57
2019-06-08T17:09:12.157Z,47.72
2019-06-08T17:11:41.369Z,47.13
2019-06-08T17:14:10.581Z,47.47
2019-06-08T17:16:40.607Z,48.39
2019-06-08T17:19:09.857Z,49.10
2019-06-08T17:21:40.374Z,48.85
2019-06-08T17:24:10.652Z,48.69
2019-06-08T17:26:40.784Z,48.78
2019-06-08T17:29:10.194Z,49.17
2019-06-08T17:31:39.398Z,50.30
2019-06-08T17:34:08.637Z,51.13
2019-06-08T17:36:38.593Z,51.61
2019-06-08T17:39:07.867Z,51.73
2019-06-08T17:41:38.174Z,51.32
2019-06-08T17:44:07.425Z,51.37
2019-06-08T17:46:36.611Z,52.19
2019-06-08T17:49:25.052Z,52.73
2019-06-08T17:51:54.176Z,53.46
2019-06-08T17:54:24.996Z,53.15
2019-06-08T17:56:54.175Z,54.01
2019-06-08T17:59:23.364Z,53.81
2019-06-08T18:01:52.614Z,53.15
2019-06-08T18:04:21.837Z,53.57
2019-06-08T18:06:50.993Z,53.73
2019-06-08T18:09:22.922Z,53.90
2019-06-08T18:11:52.095Z,54.32
2019-06-08T18:14:21.311Z,54.81
2019-06-08T18:16:50.481Z,54.64
2019-06-08T18:19:28.033Z,54.52
2019-06-08T18:22:02.841Z,55.51
2019-06-08T18:24:28.085Z,55.95
2019-06-08T18:26:58.768Z,56.74
2019-06-08T18:29:27.983Z,57.04
2019-06-08T18:31:58.129Z,57.22
2019-06-08T18:34:29.015Z,58.02
2019-06-08T18:36:58.237Z,57.72
2019-06-08T18:39:30.042Z,58.09
2019-06-08T18:41:59.261Z,58.24
2019-06-08T18:44:28.732Z,58.55
2019-06-08T18:46:58.348Z,58.98
2019-06-08T18:49:28.940Z,59.21
2019-06-08T18:51:58.462Z,59.58
2019-06-08T18:54:28.036Z,59.20
2019-06-08T18:56:57.683Z,59.37
2019-06-08T18:59:28.695Z,59.51
2019-06-08T19:01:57.985Z,59.75
2019-06-08T19:04:30.936Z,59.90
2019-06-08T19:07:01.866Z,59.93
2019-06-08T19:09:32.208Z,59.54
2019-06-08T19:12:01.379Z,59.15
2019-06-08T19:14:30.645Z,58.93
2019-06-08T19:16:59.834Z,58.69
2019-06-08T19:19:31.544Z,58.51
2019-06-08T19:21:59.920Z,57.93
2019-06-08T19:24:29.110Z,57.89
2019-06-08T19:26:58.298Z,58.22
2019-06-08T19:29:28.287Z,57.99
2019-06-08T19:32:00.591Z,58.13
2019-06-08T19:34:33.029Z,58.47
2019-06-08T19:36:59.205Z,58.86
2019-06-08T19:39:28.775Z,59.09
2019-06-08T19:41:59.867Z,59.43
2019-06-08T19:44:29.300Z,59.51
2019-06-08T19:46:58.509Z,59.87
2019-06-08T19:49:28.308Z,60.31
2019-06-08T19:51:58.129Z,60.14
2019-06-08T19:54:27.474Z,60.39
2019-06-08T19:56:57.503Z,60.55
2019-06-08T19:59:27.437Z,60.56
2019-06-08T20:01:59.565Z,60.30
2019-06-08T20:04:27.781Z,60.14
2019-06-08T20:07:00.316Z,60.25
2019-06-08T20:09:28.438Z,60.05
2019-06-08T20:12:00.076Z,59.98
2019-06-08T20:14:28.555Z,59.87
2019-06-08T20:16:57.964Z,60.03
2019-06-08T20:19:27.945Z,59.73
2019-06-08T20:21:58.310Z,59.80
2019-06-08T20:24:27.957Z,60.03
2019-06-08T20:26:57.279Z,60.29
2019-06-08T20:29:28.264Z,60.21
2019-06-08T20:31:58.310Z,59.73
2019-06-08T20:34:27.770Z,59.85
2019-06-08T20:36:58.304Z,59.25
2019-06-08T20:39:27.873Z,59.46
2019-06-08T20:41:58.551Z,58.87
2019-06-08T20:44:30.263Z,58.91
2019-06-08T20:46:58.957Z,58.75
2019-06-08T20:49:28.138Z,58.79
2019-06-08T20:52:00.109Z,58.76
2019-06-08T20:54:28.211Z,58.66
2019-06-08T20:57:03.201Z,58.61
2019-06-08T20:59:34.288Z,58.96
2019-06-08T21:02:03.614Z,58.97
2019-06-08T21:04:32.808Z,58.74
2019-06-08T21:07:02.011Z,59.10
2019-06-08T21:09:31.167Z,59.10
2019-06-08T21:12:00.355Z,59.25
2019-06-08T21:14:29.563Z,59.46
2019-06-08T21:16:58.843Z,59.24
2019-06-08T21:19:28.250Z,59.58
2019-06-08T21:21:59.293Z,59.71
2019-06-08T21:24:28.926Z,59.85
2019-06-08T21:27:00.632Z,60.04
2019-06-08T21:29:46.935Z,60.29
2019-06-08T21:32:02.313Z,60.02
2019-06-08T21:34:30.784Z,60.36
2019-06-08T21:37:00.891Z,60.90
2019-06-08T21:39:30.305Z,60.87
2019-06-08T21:42:02.875Z,61.01
2019-06-08T21:44:30.359Z,61.09
2019-06-08T21:47:01.460Z,61.14
2019-06-08T21:49:30.563Z,61.37
2019-06-08T21:52:01.346Z,61.45
2019-06-08T21:54:31.732Z,61.79
2019-06-08T21:57:01.224Z,61.94
2019-06-08T21:59:30.738Z,61.74
2019-06-08T22:02:02.658Z,62.10
2019-06-08T22:04:30.964Z,61.97
2019-06-08T22:07:01.627Z,61.73
2019-06-08T22:09:31.032Z,62.02
2019-06-08T22:12:00.999Z,62.25
2019-06-08T22:14:30.207Z,61.96
2019-06-08T22:17:01.323Z,61.93
2019-06-08T22:19:30.390Z,62.04
2019-06-08T22:22:01.780Z,62.00
2019-06-08T22:24:30.460Z,61.89
2019-06-08T22:27:01.735Z,62.22
2019-06-08T22:29:30.526Z,62.23
2019-06-08T22:31:59.829Z,62.41
2019-06-08T22:34:28.986Z,62.89
2019-06-08T22:36:59.952Z,63.07
2019-06-08T22:39:28.984Z,63.16
2019-06-08T22:41:59.583Z,63.08
2019-06-08T22:44:29.153Z,63.60
2019-06-08T22:47:00.172Z,63.57
2019-06-08T22:49:29.280Z,63.81
2019-06-08T22:52:00.825Z,63.81
2019-06-08T22:54:29.413Z,63.87
2019-06-08T22:57:01.366Z,64.32
2019-06-08T22:59:29.492Z,64.89
2019-06-08T23:02:02.234Z,64.98
2019-06-08T23:04:31.148Z,65.18
2019-06-08T23:07:03.154Z,65.48
2019-06-08T23:09:31.191Z,65.52
2019-06-08T23:12:03.051Z,65.62
2019-06-08T23:14:31.251Z,65.95
2019-06-08T23:17:02.292Z,66.13
2019-06-08T23:19:31.392Z,66.70
2019-06-08T23:22:01.309Z,66.55
2019-06-08T23:24:31.618Z,66.72
2019-06-08T23:27:02.040Z,66.77
2019-06-08T23:29:31.382Z,66.91
2019-06-08T23:32:02.641Z,67.83
2019-06-08T23:34:31.559Z,67.65
2019-06-08T23:37:05.573Z,67.85
2019-06-08T23:39:31.721Z,67.90
2019-06-08T23:42:01.866Z,68.09
2019-06-08T23:44:31.051Z,68.78
2019-06-08T23:47:01.610Z,68.50
2019-06-08T23:49:31.126Z,69.46
2019-06-08T23:52:02.247Z,69.73
2019-06-08T23:54:31.473Z,70.18
2019-06-08T23:57:01.142Z,69.69
2019-06-08T23:59:30.371Z,70.08
